Time;durP1;ratioP1;P1;durP2;ratioP2;P2;SDS_P1;SDS_P2;PMS_P1;PMS_P2;Temp;Humidity;BMP_temperature;BMP_pressure;BME280_temperature;BME280_humidity;BME280_pressure;Samples;Min_cycle;Max_cycle;Signal;HPM_P1;HPM_P2
2023/12/21 00:00:02;;;;;;;0.35;0.35;;;;;;;6.09;100.00;98711.63;5068179;28;20490;-58
2023/12/21 00:02:32;;;;;;;0.50;0.50;;;;;;;6.06;100.00;98712.88;5090037;28;20043;-58
2023/12/21 00:04:59;;;;;;;0.30;0.30;;;;;;;6.05;100.00;98708.59;5095976;28;20104;-58
2023/12/21 00:07:27;;;;;;;0.40;0.40;;;;;;;6.15;100.00;98703.53;5099690;28;20052;-58
2023/12/21 00:09:55;;;;;;;0.35;0.35;;;;;;;6.07;100.00;98695.91;5092724;28;20071;-57
2023/12/21 00:12:24;;;;;;;0.30;0.30;;;;;;;6.10;100.00;98697.28;5095686;28;20097;-58
2023/12/21 00:14:51;;;;;;;0.30;0.30;;;;;;;6.12;100.00;98688.03;5089077;28;20047;-58
2023/12/21 00:17:19;;;;;;;0.40;0.40;;;;;;;6.20;100.00;98693.03;5097782;28;20050;-58
2023/12/21 00:19:46;;;;;;;0.38;0.38;;;;;;;6.13;100.00;98681.66;5094577;28;20040;-58
2023/12/21 00:22:19;;;;;;;0.40;0.40;;;;;;;6.22;100.00;98682.97;5091927;28;20048;-58
2023/12/21 00:24:46;;;;;;;0.43;0.43;;;;;;;6.19;100.00;98678.13;5090968;28;20034;-58
2023/12/21 00:27:12;;;;;;;0.40;0.40;;;;;;;6.15;100.00;98666.28;5089552;28;20072;-58
2023/12/21 00:29:39;;;;;;;0.30;0.30;;;;;;;6.16;100.00;98654.59;5085300;28;20121;-58
2023/12/21 00:32:07;;;;;;;0.38;0.38;;;;;;;6.14;100.00;98664.69;5097193;28;20504;-58
2023/12/21 00:34:35;;;;;;;0.40;0.40;;;;;;;6.19;100.00;98643.53;5095178;28;20135;-58
2023/12/21 00:37:02;;;;;;;0.40;0.40;;;;;;;6.22;100.00;98653.72;5095290;28;20138;-58
2023/12/21 00:39:29;;;;;;;0.40;0.40;;;;;;;6.23;100.00;98657.97;5094874;28;20035;-58
2023/12/21 00:41:56;;;;;;;0.32;0.32;;;;;;;6.24;100.00;98662.28;5092401;28;20190;-58
2023/12/21 00:44:23;;;;;;;0.30;0.30;;;;;;;6.20;100.00;98655.78;5085580;28;20124;-58
2023/12/21 00:46:50;;;;;;;0.40;0.40;;;;;;;6.30;100.00;98667.72;5088198;28;20138;-58
2023/12/21 00:49:17;;;;;;;0.40;0.40;;;;;;;6.31;100.00;98653.38;5083995;28;20049;-58
2023/12/21 00:51:46;;;;;;;0.40;0.40;;;;;;;6.29;100.00;98655.44;5087545;28;20502;-59
2023/12/21 00:54:13;;;;;;;0.50;0.50;;;;;;;6.33;100.00;98653.97;5075790;28;20062;-59
2023/12/21 00:56:40;;;;;;;0.40;0.40;;;;;;;6.32;100.00;98657.66;5096542;28;20043;-58
2023/12/21 00:59:07;;;;;;;0.40;0.40;;;;;;;6.35;100.00;98641.22;5082972;28;20142;-59
2023/12/21 01:01:34;;;;;;;0.40;0.40;;;;;;;6.30;100.00;98649.09;5091882;28;20036;-59
2023/12/21 01:04:01;;;;;;;0.40;0.40;;;;;;;6.32;100.00;98642.50;5085184;28;20044;-59
2023/12/21 01:06:28;;;;;;;0.28;0.28;;;;;;;6.32;100.00;98625.72;5089437;28;20361;-58
2023/12/21 01:08:56;;;;;;;0.40;0.40;;;;;;;6.37;100.00;98633.84;5089900;28;20139;-58
2023/12/21 01:11:23;;;;;;;0.38;0.38;;;;;;;6.35;100.00;98630.59;5087593;28;20043;-59
2023/12/21 01:13:50;;;;;;;0.40;0.40;;;;;;;6.44;100.00;98623.88;5085053;28;20474;-58
2023/12/21 01:16:18;;;;;;;0.40;0.40;;;;;;;6.44;100.00;98602.56;5094311;28;20135;-59
2023/12/21 01:18:45;;;;;;;0.40;0.40;;;;;;;6.44;100.00;98599.91;5090114;28;20075;-58
2023/12/21 01:21:12;;;;;;;0.35;0.35;;;;;;;6.33;100.00;98606.84;5096132;28;20043;-58
2023/12/21 01:23:39;;;;;;;0.40;0.40;;;;;;;6.40;100.00;98590.78;5091837;28;20880;-59
2023/12/21 01:26:07;;;;;;;0.40;0.40;;;;;;;6.38;100.00;98590.19;5084172;28;20047;-58
2023/12/21 01:28:35;;;;;;;0.30;0.30;;;;;;;6.46;100.00;98595.16;5093028;28;20059;-58
2023/12/21 01:31:02;;;;;;;0.40;0.40;;;;;;;6.50;100.00;98584.88;5093981;28;20064;-59
2023/12/21 01:33:29;;;;;;;0.30;0.30;;;;;;;6.45;100.00;98588.25;5083346;28;20135;-59
2023/12/21 01:35:56;;;;;;;0.40;0.40;;;;;;;6.50;100.00;98580.38;5096165;28;20206;-58
2023/12/21 01:38:23;;;;;;;0.40;0.40;;;;;;;6.41;100.00;98571.91;5076344;28;20071;-59
2023/12/21 01:40:49;;;;;;;0.40;0.40;;;;;;;6.56;100.00;98574.09;5097366;28;20050;-59
2023/12/21 01:43:18;;;;;;;0.50;0.50;;;;;;;6.56;100.00;98574.09;5094472;28;20047;-58
2023/12/21 01:45:45;;;;;;;0.32;0.32;;;;;;;6.62;100.00;98567.06;5091241;28;20311;-59
2023/12/21 01:48:12;;;;;;;0.25;0.25;;;;;;;6.56;100.00;98568.78;5091254;28;20032;-59
2023/12/21 01:50:39;;;;;;;0.40;0.40;;;;;;;6.53;100.00;98563.91;5088957;28;20122;-59
2023/12/21 01:53:09;;;;;;;0.30;0.30;;;;;;;6.54;100.00;98562.91;5093953;28;20162;-59
2023/12/21 01:55:36;;;;;;;0.30;0.30;;;;;;;6.53;100.00;98565.78;5091870;28;20603;-59
2023/12/21 01:58:04;;;;;;;0.38;0.38;;;;;;;6.56;100.00;98552.78;5097123;28;20059;-59
2023/12/21 02:00:33;;;;;;;0.30;0.30;;;;;;;6.54;100.00;98552.25;5091502;28;20445;-59
2023/12/21 02:03:00;;;;;;;0.30;0.30;;;;;;;6.54;100.00;98548.75;5092520;28;20044;-59
2023/12/21 02:05:26;;;;;;;0.30;0.30;;;;;;;6.57;100.00;98541.13;5096051;28;20048;-59
2023/12/21 02:07:55;;;;;;;0.40;0.40;;;;;;;6.58;100.00;98532.09;5093196;28;20133;-60
2023/12/21 02:10:22;;;;;;;0.30;0.30;;;;;;;6.48;100.00;98524.69;5089286;28;20060;-59
2023/12/21 02:12:49;;;;;;;0.40;0.40;;;;;;;6.52;100.00;98525.03;5087193;28;20046;-59
2023/12/21 02:15:16;;;;;;;0.30;0.30;;;;;;;6.53;100.00;98515.19;5094893;28;20079;-59
2023/12/21 02:17:47;;;;;;;0.30;0.30;;;;;;;6.62;100.00;98530.59;5091432;28;20521;-59
2023/12/21 02:20:14;;;;;;;0.38;0.38;;;;;;;6.56;100.00;98525.38;5074166;28;20308;-59
2023/12/21 02:22:42;;;;;;;0.32;0.32;;;;;;;6.60;100.00;98515.88;5091308;28;20075;-59
2023/12/21 02:25:11;;;;;;;0.30;0.30;;;;;;;6.64;100.00;98507.19;5087927;28;20120;-59
2023/12/21 02:27:38;;;;;;;0.40;0.40;;;;;;;6.61;100.00;98512.97;5077027;28;20055;-59
2023/12/21 02:30:08;;;;;;;0.40;0.40;;;;;;;6.75;100.00;98502.06;5094566;28;20055;-59
2023/12/21 02:32:35;;;;;;;0.40;0.40;;;;;;;6.69;100.00;98501.97;5094514;28;20048;-59
2023/12/21 02:35:02;;;;;;;0.40;0.40;;;;;;;6.64;100.00;98501.88;5091423;28;20044;-59
2023/12/21 02:37:29;;;;;;;0.40;0.40;;;;;;;6.62;100.00;98495.97;5087218;28;20130;-59
2023/12/21 02:39:56;;;;;;;0.40;0.40;;;;;;;6.72;100.00;98484.72;5085542;28;20736;-58
2023/12/21 02:42:24;;;;;;;0.40;0.40;;;;;;;6.68;100.00;98495.00;5097681;28;20046;-58
2023/12/21 02:44:52;;;;;;;0.30;0.30;;;;;;;6.58;100.00;98494.81;5093286;28;20086;-58
2023/12/21 02:47:19;;;;;;;0.30;0.30;;;;;;;6.62;100.00;98485.31;5091879;28;20490;-58
2023/12/21 02:49:46;;;;;;;0.40;0.40;;;;;;;6.58;100.00;98481.50;5093687;28;20134;-58
2023/12/21 02:52:13;;;;;;;0.40;0.40;;;;;;;6.57;100.00;98479.09;5086494;28;20056;-58
2023/12/21 02:54:40;;;;;;;0.38;0.38;;;;;;;6.61;100.00;98480.22;5086884;28;20066;-58
2023/12/21 02:57:07;;;;;;;0.40;0.40;;;;;;;6.67;100.00;98489.94;5086193;28;20128;-58
2023/12/21 02:59:35;;;;;;;0.40;0.40;;;;;;;6.56;100.00;98472.91;5073405;28;20044;-58
2023/12/21 03:02:02;;;;;;;0.35;0.35;;;;;;;6.62;100.00;98466.69;5094048;28;20048;-58
2023/12/21 03:04:29;;;;;;;0.50;0.50;;;;;;;6.70;100.00;98463.63;5090222;28;20172;-59
2023/12/21 03:06:56;;;;;;;0.30;0.30;;;;;;;6.70;100.00;98462.84;5077137;28;20108;-58
2023/12/21 03:09:23;;;;;;;0.40;0.40;;;;;;;6.77;100.00;98463.50;5086260;28;20155;-58
2023/12/21 03:11:50;;;;;;;0.40;0.40;;;;;;;6.73;100.00;98450.91;5094515;28;20063;-59
2023/12/21 03:14:17;;;;;;;0.35;0.35;;;;;;;6.67;100.00;98437.47;5095820;28;20051;-58
2023/12/21 03:16:46;;;;;;;0.30;0.30;;;;;;;6.61;100.00;98441.06;5090637;28;20048;-58
2023/12/21 03:19:13;;;;;;;0.30;0.30;;;;;;;6.69;100.00;98435.41;5089937;28;20067;-58
2023/12/21 03:21:40;;;;;;;0.40;0.40;;;;;;;6.70;100.00;98430.88;5090420;28;20055;-58
2023/12/21 03:24:08;;;;;;;0.30;0.30;;;;;;;6.68;100.00;98433.75;5097615;28;21092;-58
2023/12/21 03:26:35;;;;;;;0.40;0.40;;;;;;;6.73;100.00;98424.28;5093389;28;20433;-58
2023/12/21 03:29:02;;;;;;;0.40;0.40;;;;;;;6.72;100.00;98417.34;5095162;28;20056;-58
2023/12/21 03:31:30;;;;;;;0.40;0.40;;;;;;;6.69;100.00;98406.09;5098326;28;20044;-58
2023/12/21 03:33:58;;;;;;;0.40;0.40;;;;;;;6.77;100.00;98398.78;5095515;28;20543;-59
2023/12/21 03:36:27;;;;;;;0.30;0.30;;;;;;;6.80;100.00;98406.28;5072812;28;20050;-58
2023/12/21 03:38:54;;;;;;;0.40;0.40;;;;;;;6.83;100.00;98405.81;5096822;28;20055;-58
2023/12/21 03:41:21;;;;;;;0.40;0.40;;;;;;;6.90;100.00;98398.50;5092508;28;20061;-58
2023/12/21 03:43:48;;;;;;;0.30;0.30;;;;;;;6.91;100.00;98400.09;5091142;28;20036;-58
2023/12/21 03:46:15;;;;;;;0.32;0.32;;;;;;;6.97;100.00;98398.34;5087740;28;20056;-58
2023/12/21 03:48:42;;;;;;;0.40;0.40;;;;;;;6.99;100.00;98397.06;5086224;28;20413;-58
2023/12/21 03:51:11;;;;;;;0.30;0.30;;;;;;;7.08;100.00;98395.63;5090705;28;20044;-57
2023/12/21 03:53:38;;;;;;;0.30;0.30;;;;;;;7.06;100.00;98391.56;5074286;28;20047;-58
2023/12/21 03:56:05;;;;;;;0.40;0.40;;;;;;;7.09;100.00;98391.91;5058355;28;20047;-58
2023/12/21 03:58:32;;;;;;;0.40;0.40;;;;;;;7.16;100.00;98372.28;5089836;28;20135;-58
2023/12/21 04:00:59;;;;;;;0.30;0.30;;;;;;;7.06;100.00;98365.75;5092118;28;20135;-58
2023/12/21 04:03:26;;;;;;;0.35;0.35;;;;;;;7.07;100.00;98351.38;5089722;28;20063;-58
2023/12/21 04:05:54;;;;;;;0.40;0.40;;;;;;;7.04;100.00;98351.88;5095875;28;20130;-58
2023/12/21 04:08:22;;;;;;;0.40;0.40;;;;;;;7.10;100.00;98344.75;5096052;28;20206;-58
2023/12/21 04:10:49;;;;;;;0.30;0.30;;;;;;;7.04;100.00;98341.22;5092802;28;20052;-60
2023/12/21 04:13:16;;;;;;;0.35;0.35;;;;;;;7.04;100.00;98330.53;5089177;28;20089;-58
2023/12/21 04:15:43;;;;;;;0.40;0.40;;;;;;;7.07;100.00;98311.41;5094416;28;20043;-58
2023/12/21 04:18:10;;;;;;;0.40;0.40;;;;;;;7.16;100.00;98301.13;5086046;28;20046;-57
2023/12/21 04:20:38;;;;;;;0.30;0.30;;;;;;;7.06;100.00;98304.47;5092207;28;20482;-58
2023/12/21 04:23:05;;;;;;;0.40;0.40;;;;;;;7.03;100.00;98315.59;5091244;28;20047;-58
2023/12/21 04:25:33;;;;;;;0.38;0.38;;;;;;;7.07;100.00;98311.41;5086997;28;20120;-58
2023/12/21 04:28:00;;;;;;;0.30;0.30;;;;;;;7.06;100.00;98299.16;5073807;28;20154;-58
2023/12/21 04:30:27;;;;;;;0.32;0.32;;;;;;;7.08;100.00;98304.22;5093057;28;20043;-58
2023/12/21 04:32:55;;;;;;;0.40;0.40;;;;;;;7.05;100.00;98297.50;5070948;28;20086;-57
2023/12/21 04:35:22;;;;;;;0.32;0.32;;;;;;;7.05;100.00;98278.88;5090072;28;20044;-58
2023/12/21 04:37:49;;;;;;;0.40;0.40;;;;;;;7.09;100.00;98280.00;5088474;28;20127;-58
2023/12/21 04:40:16;;;;;;;0.30;0.30;;;;;;;7.05;100.00;98259.41;5095196;28;20782;-58
2023/12/21 04:42:51;;;;;;;0.22;0.22;;;;;;;7.03;100.00;98259.63;5089197;28;20036;-61
2023/12/21 04:45:19;;;;;;;0.40;0.40;;;;;;;7.04;100.00;98239.97;5094644;28;20575;-59
2023/12/21 04:47:46;;;;;;;0.25;0.25;;;;;;;7.11;100.00;98255.75;5091327;28;20048;-58
2023/12/21 04:50:13;;;;;;;0.30;0.30;;;;;;;7.08;100.00;98240.25;5089927;28;20067;-58
2023/12/21 04:52:40;;;;;;;0.40;0.40;;;;;;;7.19;100.00;98241.22;5094074;28;20040;-60
2023/12/21 04:55:08;;;;;;;0.30;0.30;;;;;;;7.18;100.00;98244.94;5076471;28;20043;-60
2023/12/21 04:57:35;;;;;;;0.40;0.40;;;;;;;7.19;100.00;98230.56;5079533;28;20127;-60
2023/12/21 05:00:05;;;;;;;0.47;0.47;;;;;;;7.20;100.00;98232.97;5071725;28;20044;-58
2023/12/21 05:02:32;;;;;;;0.40;0.40;;;;;;;7.30;100.00;98219.00;5082238;28;20040;-58
2023/12/21 05:04:59;;;;;;;0.30;0.30;;;;;;;7.25;100.00;98219.72;5093335;28;20051;-58
2023/12/21 05:07:26;;;;;;;0.40;0.40;;;;;;;7.26;100.00;98205.38;5092636;28;20040;-60
2023/12/21 05:09:58;;;;;;;0.35;0.35;;;;;;;7.25;100.00;98218.94;5088709;28;20054;-60
2023/12/21 05:12:26;;;;;;;0.50;0.50;;;;;;;7.32;100.00;98219.56;5084013;28;20259;-59
2023/12/21 05:14:54;;;;;;;0.30;0.30;;;;;;;7.28;100.00;98215.75;5071842;28;20066;-60
2023/12/21 05:17:22;;;;;;;0.32;0.32;;;;;;;7.24;100.00;98202.13;5071831;28;20742;-59
2023/12/21 05:19:49;;;;;;;0.30;0.30;;;;;;;7.32;100.00;98211.56;5067936;28;20422;-59
2023/12/21 05:22:17;;;;;;;0.32;0.32;;;;;;;7.29;100.00;98214.72;5090142;28;20120;-60
2023/12/21 05:24:44;;;;;;;0.40;0.40;;;;;;;7.30;100.00;98216.34;5096904;28;20130;-60
2023/12/21 05:27:11;;;;;;;0.40;0.40;;;;;;;7.34;100.00;98209.47;5090906;28;20127;-59
2023/12/21 05:29:38;;;;;;;0.40;0.40;;;;;;;7.31;100.00;98196.63;5097313;28;20072;-58
2023/12/21 05:32:07;;;;;;;0.30;0.30;;;;;;;7.25;100.00;98198.41;5091598;28;20888;-59
2023/12/21 05:34:35;;;;;;;0.30;0.30;;;;;;;7.38;100.00;98205.25;5093766;28;20050;-58
2023/12/21 05:37:02;;;;;;;0.38;0.38;;;;;;;7.34;100.00;98201.47;5074739;28;20489;-59
2023/12/21 05:39:30;;;;;;;0.40;0.40;;;;;;;7.26;100.00;98215.19;5071520;28;20051;-59
2023/12/21 05:41:57;;;;;;;0.38;0.38;;;;;;;7.35;100.00;98208.41;5093005;28;20051;-59
2023/12/21 05:44:24;;;;;;;0.30;0.30;;;;;;;7.34;100.00;98196.13;5094211;28;20138;-59
2023/12/21 05:46:51;;;;;;;0.30;0.30;;;;;;;7.38;100.00;98175.91;5085341;28;20048;-59
2023/12/21 05:49:18;;;;;;;0.30;0.30;;;;;;;7.24;100.00;98164.00;5096159;28;20047;-58
2023/12/21 05:51:48;;;;;;;0.30;0.30;;;;;;;7.27;100.00;98156.31;5091763;28;20044;-59
2023/12/21 05:54:17;;;;;;;0.30;0.30;;;;;;;7.25;100.00;98155.75;5096357;28;20051;-59
2023/12/21 05:56:44;;;;;;;0.40;0.40;;;;;;;7.27;100.00;98153.66;5098396;28;20135;-59
2023/12/21 05:59:11;;;;;;;0.40;0.40;;;;;;;7.21;100.00;98153.84;5096089;28;20039;-59
2023/12/21 06:01:41;;;;;;;0.32;0.32;;;;;;;7.26;100.00;98151.22;5093533;28;20044;-59
2023/12/21 06:04:08;;;;;;;0.32;0.32;;;;;;;7.18;100.00;98149.81;5093995;28;20046;-59
2023/12/21 06:06:36;;;;;;;0.28;0.28;;;;;;;7.29;100.00;98135.56;5083202;28;20043;-59
2023/12/21 06:09:07;;;;;;;0.32;0.32;;;;;;;7.30;100.00;98139.03;5092348;28;20047;-59
2023/12/21 06:11:34;;;;;;;0.30;0.30;;;;;;;7.25;100.00;98113.13;5091667;28;20040;-59
2023/12/21 06:14:02;;;;;;;0.30;0.30;;;;;;;7.23;100.00;98103.75;5069819;28;20056;-59
2023/12/21 06:16:29;;;;;;;0.40;0.40;;;;;;;7.33;100.00;98109.22;5078622;28;20048;-59
2023/12/21 06:18:56;;;;;;;0.30;0.30;;;;;;;7.31;100.00;98111.31;5078362;28;20603;-59
2023/12/21 06:21:23;;;;;;;0.40;0.40;;;;;;;7.30;100.00;98115.84;5097767;28;20794;-59
2023/12/21 06:23:50;;;;;;;0.40;0.40;;;;;;;7.33;100.00;98099.34;5097940;28;20494;-59
2023/12/21 06:26:19;;;;;;;0.40;0.40;;;;;;;7.32;100.00;98107.63;5093683;28;20044;-59
2023/12/21 06:28:46;;;;;;;0.38;0.38;;;;;;;7.34;100.00;98100.97;5090866;28;20097;-59
2023/12/21 06:31:16;;;;;;;0.30;0.30;;;;;;;7.40;100.00;98099.16;5095486;28;20192;-59
2023/12/21 06:33:44;;;;;;;0.30;0.30;;;;;;;7.44;100.00;98097.63;5092218;28;20047;-60
2023/12/21 06:36:11;;;;;;;0.40;0.40;;;;;;;7.45;100.00;98099.22;5075515;28;20217;-59
2023/12/21 06:38:38;;;;;;;0.40;0.40;;;;;;;7.46;100.00;98094.69;5094488;28;20043;-59
2023/12/21 06:41:05;;;;;;;0.40;0.40;;;;;;;7.51;100.00;98098.25;5094194;28;20058;-59
2023/12/21 06:43:35;;;;;;;0.30;0.30;;;;;;;7.55;100.00;98110.00;5098495;28;20159;-63
2023/12/21 06:46:02;;;;;;;0.35;0.35;;;;;;;7.59;100.00;98115.66;5089493;28;20046;-58
2023/12/21 06:48:29;;;;;;;0.30;0.30;;;;;;;7.57;100.00;98101.75;5099477;28;20058;-58
2023/12/21 06:50:56;;;;;;;0.40;0.40;;;;;;;7.61;100.00;98097.53;5094517;28;20043;-59
2023/12/21 06:53:23;;;;;;;0.28;0.28;;;;;;;7.64;100.00;98104.22;5094550;28;20693;-58
2023/12/21 06:55:50;;;;;;;0.30;0.30;;;;;;;7.68;100.00;98094.66;5094351;28;20457;-59
2023/12/21 06:58:17;;;;;;;0.30;0.30;;;;;;;7.55;100.00;98078.00;5072308;28;20561;-58
2023/12/21 07:00:47;;;;;;;0.28;0.28;;;;;;;7.67;100.00;98077.06;5100134;28;20674;-58
2023/12/21 07:03:14;;;;;;;0.20;0.20;;;;;;;7.70;100.00;98082.69;5090916;28;20054;-58
2023/12/21 07:05:41;;;;;;;0.20;0.20;;;;;;;7.75;100.00;98080.06;5097482;28;20120;-58
2023/12/21 07:08:08;;;;;;;0.30;0.30;;;;;;;7.71;100.00;98068.31;5085775;28;20043;-58
2023/12/21 07:10:35;;;;;;;0.50;0.50;;;;;;;7.68;100.00;98076.00;5095854;28;20055;-58
2023/12/21 07:13:02;;;;;;;0.38;0.38;;;;;;;7.76;100.00;98070.22;5084624;28;20054;-58
2023/12/21 07:15:30;;;;;;;0.30;0.30;;;;;;;7.86;100.00;98070.34;5063756;28;20059;-58
2023/12/21 07:17:58;;;;;;;0.32;0.32;;;;;;;7.80;100.00;98079.31;5083969;28;20126;-58
2023/12/21 07:20:26;;;;;;;0.35;0.35;;;;;;;7.84;100.00;98058.28;5076936;28;20036;-58
2023/12/21 07:22:53;;;;;;;0.30;0.30;;;;;;;7.89;100.00;98040.47;5097224;28;20059;-58
2023/12/21 07:25:20;;;;;;;0.30;0.30;;;;;;;8.02;100.00;98035.78;5070787;28;20158;-58
2023/12/21 07:27:47;;;;;;;0.28;0.28;;;;;;;7.92;100.00;98021.28;5087141;28;20413;-58
2023/12/21 07:30:14;;;;;;;0.30;0.30;;;;;;;8.04;100.00;98022.94;5095188;28;20051;-58
2023/12/21 07:32:41;;;;;;;0.30;0.30;;;;;;;8.13;100.00;98026.78;5092990;28;20155;-58
2023/12/21 07:35:11;;;;;;;0.20;0.20;;;;;;;8.17;100.00;98022.53;5089295;28;20047;-58
2023/12/21 07:37:38;;;;;;;0.35;0.35;;;;;;;8.13;100.00;98024.91;5091360;28;20126;-58
2023/12/21 07:40:06;;;;;;;0.30;0.30;;;;;;;8.14;100.00;98033.72;5090361;28;20162;-58
2023/12/21 07:42:33;;;;;;;0.35;0.35;;;;;;;8.19;100.00;98031.09;5090725;28;20044;-58
2023/12/21 07:45:00;;;;;;;0.30;0.30;;;;;;;8.26;100.00;98015.63;5091762;28;20067;-59
2023/12/21 07:47:27;;;;;;;0.32;0.32;;;;;;;8.27;100.00;98021.81;5091585;28;20564;-58
2023/12/21 07:49:55;;;;;;;0.30;0.30;;;;;;;8.33;100.00;98020.78;5095925;28;20570;-59
2023/12/21 07:52:23;;;;;;;0.32;0.32;;;;;;;8.30;100.00;98011.41;5096818;28;20511;-59
2023/12/21 07:54:50;;;;;;;0.30;0.30;;;;;;;8.31;100.00;98015.72;5091009;28;20127;-59
2023/12/21 07:57:18;;;;;;;0.38;0.38;;;;;;;8.34;100.00;98025.88;5082868;28;20043;-59
2023/12/21 07:59:45;;;;;;;0.30;0.30;;;;;;;8.32;100.00;98024.50;5096065;28;20126;-58
2023/12/21 08:02:12;;;;;;;0.20;0.20;;;;;;;8.27;100.00;98027.94;5072436;28;20072;-59
2023/12/21 08:04:41;;;;;;;0.28;0.28;;;;;;;8.20;100.00;98032.69;5093086;28;20059;-59
2023/12/21 08:07:10;;;;;;;0.30;0.30;;;;;;;8.21;100.00;98031.63;5094240;28;20047;-59
2023/12/21 08:09:38;;;;;;;0.30;0.30;;;;;;;8.32;100.00;98005.81;5086933;28;20502;-59
2023/12/21 08:12:05;;;;;;;0.40;0.40;;;;;;;8.25;100.00;97984.69;5077243;28;20375;-59
2023/12/21 08:14:35;;;;;;;0.30;0.30;;;;;;;8.28;100.00;97986.84;5093798;28;20046;-59
2023/12/21 08:17:06;;;;;;;0.30;0.30;;;;;;;8.26;100.00;97994.28;5097105;28;20490;-58
2023/12/21 08:19:34;;;;;;;0.40;0.40;;;;;;;8.33;100.00;97965.50;5096176;28;20044;-59
2023/12/21 08:22:02;;;;;;;0.30;0.30;;;;;;;8.37;100.00;97963.94;5068463;28;20056;-59
2023/12/21 08:24:29;;;;;;;0.28;0.28;;;;;;;8.38;100.00;97949.50;5072793;28;20130;-58
2023/12/21 08:26:58;;;;;;;0.30;0.30;;;;;;;8.44;100.00;97931.69;5084803;28;20054;-59
2023/12/21 08:29:25;;;;;;;0.20;0.20;;;;;;;8.31;100.00;97932.94;5089399;28;20047;-58
2023/12/21 08:31:52;;;;;;;0.30;0.30;;;;;;;8.38;100.00;97917.47;5092290;28;20135;-59
2023/12/21 08:34:22;;;;;;;0.30;0.30;;;;;;;8.45;100.00;97892.44;5087282;28;20857;-59
2023/12/21 08:36:50;;;;;;;0.20;0.20;;;;;;;8.37;100.00;97889.19;5091853;28;20074;-59
2023/12/21 08:39:18;;;;;;;0.30;0.30;;;;;;;8.34;100.00;97870.22;5081067;28;20188;-59
2023/12/21 08:41:46;;;;;;;0.20;0.20;;;;;;;8.33;100.00;97882.75;5091101;28;20069;-59
2023/12/21 08:44:14;;;;;;;0.30;0.30;;;;;;;8.33;100.00;97863.25;5091207;28;20106;-59
2023/12/21 08:46:44;;;;;;;0.30;0.30;;;;;;;8.46;100.00;97851.31;5088688;28;20041;-59
2023/12/21 08:49:12;;;;;;;0.20;0.20;;;;;;;8.46;100.00;97859.34;5086367;28;20040;-59
2023/12/21 08:51:39;;;;;;;0.30;0.30;;;;;;;8.48;100.00;97851.88;5092376;28;20059;-59
2023/12/21 08:54:06;;;;;;;0.30;0.30;;;;;;;8.49;100.00;97874.84;5090568;28;20047;-59
2023/12/21 08:56:33;;;;;;;0.30;0.30;;;;;;;8.54;100.00;97877.53;5078095;28;20130;-59
2023/12/21 08:59:01;;;;;;;0.30;0.30;;;;;;;8.61;100.00;97889.59;5092393;28;20156;-59
2023/12/21 09:01:30;;;;;;;0.30;0.30;;;;;;;8.60;100.00;97887.97;5068511;28;20047;-59
2023/12/21 09:03:58;;;;;;;0.30;0.30;;;;;;;8.72;100.00;97878.94;5087036;28;20750;-58
2023/12/21 09:06:26;;;;;;;0.30;0.30;;;;;;;8.79;100.00;97869.59;5082463;28;20638;-59
2023/12/21 09:08:54;;;;;;;0.30;0.30;;;;;;;8.75;100.00;97862.38;5089876;28;20044;-59
2023/12/21 09:11:22;;;;;;;0.30;0.30;;;;;;;8.76;100.00;97856.78;5084637;28;20459;-59
2023/12/21 09:13:50;;;;;;;0.28;0.28;;;;;;;8.90;100.00;97832.19;5087765;28;20082;-59
2023/12/21 09:16:18;;;;;;;0.20;0.20;;;;;;;8.75;100.00;97815.06;5082527;28;20040;-59
2023/12/21 09:18:47;;;;;;;0.20;0.20;;;;;;;8.88;100.00;97820.97;5089896;28;20120;-59
2023/12/21 09:21:14;;;;;;;0.30;0.30;;;;;;;8.83;100.00;97803.84;5084017;28;20056;-59
2023/12/21 09:23:42;;;;;;;0.20;0.20;;;;;;;8.84;100.00;97802.00;5086808;28;20055;-59
2023/12/21 09:26:09;;;;;;;0.20;0.20;;;;;;;8.82;100.00;97796.13;5090594;28;20579;-59
2023/12/21 09:28:37;;;;;;;0.30;0.30;;;;;;;8.93;100.00;97792.38;5088607;28;20043;-59
2023/12/21 09:31:05;;;;;;;0.22;0.22;;;;;;;9.00;100.00;97781.44;5088656;28;20565;-59
2023/12/21 09:33:34;;;;;;;0.30;0.30;;;;;;;8.96;100.00;97770.50;5093846;28;20288;-59
2023/12/21 09:36:02;;;;;;;0.32;0.32;;;;;;;8.95;100.00;97765.41;5088544;28;20082;-59
2023/12/21 09:38:30;;;;;;;0.22;0.22;;;;;;;9.03;100.00;97770.19;5086185;28;20043;-59
2023/12/21 09:40:57;;;;;;;0.20;0.20;;;;;;;9.08;100.00;97759.50;5090941;28;20083;-59
2023/12/21 09:43:24;;;;;;;0.30;0.30;;;;;;;9.14;100.00;97763.78;5093800;28;20044;-60
2023/12/21 09:45:52;;;;;;;0.30;0.30;;;;;;;9.11;100.00;97753.66;5086634;28;20152;-58
2023/12/21 09:48:20;;;;;;;0.30;0.30;;;;;;;9.05;100.00;97757.38;5090046;28;20044;-58
2023/12/21 09:50:49;;;;;;;0.20;0.20;;;;;;;9.24;100.00;97769.13;5095287;28;20096;-58
2023/12/21 09:53:18;;;;;;;0.20;0.20;;;;;;;9.11;100.00;97775.03;5059586;28;20124;-58
2023/12/21 09:55:46;;;;;;;0.20;0.20;;;;;;;9.03;100.00;97762.97;5089208;28;20052;-58
2023/12/21 09:58:13;;;;;;;0.30;0.30;;;;;;;9.02;100.00;97768.63;5088763;28;20136;-58
2023/12/21 10:00:40;;;;;;;0.20;0.20;;;;;;;8.97;100.00;97773.97;5093215;28;20648;-58
2023/12/21 10:03:07;;;;;;;0.20;0.20;;;;;;;8.99;100.00;97777.16;5087492;28;20159;-58
2023/12/21 10:05:34;;;;;;;0.20;0.20;;;;;;;8.81;100.00;97776.63;5087109;28;20131;-57
2023/12/21 10:08:01;;;;;;;0.30;0.30;;;;;;;8.74;100.00;97784.09;5094677;28;20044;-60
2023/12/21 10:10:30;;;;;;;0.30;0.30;;;;;;;8.85;100.00;97761.66;5084460;28;20566;-60
2023/12/21 10:12:57;;;;;;;0.30;0.30;;;;;;;8.81;100.00;97765.13;5095873;28;20095;-58
2023/12/21 10:15:24;;;;;;;0.20;0.20;;;;;;;8.87;100.00;97757.94;5095474;28;20080;-58
2023/12/21 10:17:51;;;;;;;0.20;0.20;;;;;;;8.95;100.00;97744.81;5085932;28;20052;-58
2023/12/21 10:20:19;;;;;;;0.20;0.20;;;;;;;8.92;100.00;97733.88;5074878;28;20543;-58
2023/12/21 10:22:46;;;;;;;0.22;0.22;;;;;;;8.97;100.00;97715.16;5094729;28;20036;-58
2023/12/21 10:25:13;;;;;;;0.30;0.30;;;;;;;8.94;100.00;97716.50;5068571;28;20048;-58
2023/12/21 10:27:51;;;;;;;0.20;0.20;;;;;;;8.99;100.00;97702.34;5092329;28;20040;-59
2023/12/21 10:30:22;;;;;;;0.30;0.30;;;;;;;8.93;100.00;97709.53;5089530;28;20048;-60
2023/12/21 10:32:52;;;;;;;0.30;0.30;;;;;;;9.02;100.00;97697.25;5073109;28;20054;-60
2023/12/21 10:35:19;;;;;;;0.40;0.40;;;;;;;9.07;100.00;97705.25;5090548;28;20053;-59
2023/12/21 10:37:47;;;;;;;0.30;0.30;;;;;;;9.14;100.00;97704.19;5097875;28;20048;-59
2023/12/21 10:40:15;;;;;;;0.20;0.20;;;;;;;9.16;100.00;97702.84;5071655;28;20067;-59
2023/12/21 10:42:46;;;;;;;0.20;0.20;;;;;;;9.11;100.00;97704.72;5094289;28;20043;-59
2023/12/21 10:45:15;;;;;;;0.22;0.22;;;;;;;9.20;100.00;97714.59;5087755;28;20055;-60
2023/12/21 10:47:48;;;;;;;0.20;0.20;;;;;;;9.26;100.00;97713.53;5092920;28;20473;-58
2023/12/21 10:50:16;;;;;;;0.30;0.30;;;;;;;9.31;100.00;97693.19;5087612;28;20066;-59
2023/12/21 10:52:43;;;;;;;0.20;0.20;;;;;;;9.31;100.00;97711.91;5090046;28;20135;-58
2023/12/21 10:55:10;;;;;;;0.20;0.20;;;;;;;9.32;100.00;97695.59;5070607;28;20150;-58
2023/12/21 10:57:38;;;;;;;0.20;0.20;;;;;;;9.32;100.00;97692.13;5090060;28;20048;-58
2023/12/21 11:00:12;;;;;;;0.20;0.20;;;;;;;9.27;100.00;97698.28;5092639;28;20140;-59
2023/12/21 11:02:40;;;;;;;0.20;0.20;;;;;;;9.22;100.00;97679.59;5095002;28;20718;-59
2023/12/21 11:05:08;;;;;;;0.20;0.20;;;;;;;9.28;100.00;97679.31;5091903;28;20093;-58
2023/12/21 11:07:36;;;;;;;0.30;0.30;;;;;;;9.31;100.00;97661.09;5086994;28;20117;-58
2023/12/21 11:10:05;;;;;;;0.30;0.30;;;;;;;9.41;100.00;97666.41;5088790;28;20337;-58
2023/12/21 11:12:32;;;;;;;0.28;0.28;;;;;;;9.24;100.00;97656.84;5090125;28;20124;-58
2023/12/21 11:14:59;;;;;;;0.30;0.30;;;;;;;9.21;100.00;97630.66;5096656;28;20053;-58
2023/12/21 11:17:28;;;;;;;0.20;0.20;;;;;;;9.29;100.00;97638.13;5096770;28;20044;-58
2023/12/21 11:19:55;;;;;;;0.20;0.20;;;;;;;9.25;100.00;97646.94;5092140;28;20209;-58
2023/12/21 11:22:23;;;;;;;0.30;0.30;;;;;;;9.32;100.00;97627.97;5069789;28;20051;-58
2023/12/21 11:24:51;;;;;;;0.25;0.25;;;;;;;9.37;100.00;97619.91;5096427;28;20047;-58
2023/12/21 11:27:18;;;;;;;0.20;0.20;;;;;;;9.41;100.00;97623.63;5091376;28;20056;-58
2023/12/21 11:29:45;;;;;;;0.30;0.30;;;;;;;9.47;100.00;97633.25;5091003;28;20056;-58
2023/12/21 11:32:22;;;;;;;0.30;0.30;;;;;;;9.50;100.00;97636.16;5093984;28;20474;-58
2023/12/21 11:34:51;;;;;;;0.22;0.22;;;;;;;9.55;100.00;97618.50;5087492;28;20048;-58